Time;durP1;ratioP1;P1;durP2;ratioP2;P2;SDS_P1;SDS_P2;PMS_P1;PMS_P2;Temp;Humidity;BMP_temperature;BMP_pressure;BME280_temperature;BME280_humidity;BME280_pressure;Samples;Min_cycle;Max_cycle;Signal;HPM_P1;HPM_P2
2022/06/05 00:01:07;;;;;;;13.93;5.45;;;;;;;;;;5080370;27;89858;-67
2022/06/05 00:03:54;;;;;;;9.23;5.10;;;;;;;;;;5078018;27;90231;-68
2022/06/05 00:06:37;;;;;;;10.95;5.22;;;;;;;;;;5075560;27;89019;-68
2022/06/05 00:09:11;;;;;;;14.18;5.07;;;;;;;;;;5089755;27;88434;-68
2022/06/05 00:11:43;;;;;;;11.27;5.10;;;;;;;;;;5093501;27;87996;-68
2022/06/05 00:14:10;;;;;;;12.25;5.22;;;;;;;;;;5078635;27;88642;-67
2022/06/05 00:16:36;;;;;;;11.38;5.75;;;;;;;;;;5066474;27;89042;-67
2022/06/05 00:19:03;;;;;;;9.55;5.30;;;;;;;;;;5076813;27;87985;-69
2022/06/05 00:21:29;;;;;;;11.73;5.53;;;;;;;;;;5063068;27;89084;-67
2022/06/05 00:23:55;;;;;;;17.38;5.85;;;;;;;;;;5057347;27;88917;-68
2022/06/05 00:26:40;;;;;;;6.53;4.90;;;;;;;;;;5057496;27;88080;-67
2022/06/05 00:29:23;;;;;;;9.77;5.30;;;;;;;;;;5058068;27;88682;-68
2022/06/05 00:31:56;;;;;;;9.75;5.43;;;;;;;;;;5058228;27;88959;-67
2022/06/05 00:34:22;;;;;;;14.18;5.95;;;;;;;;;;5056508;27;88795;-67
2022/06/05 00:37:07;;;;;;;10.40;5.60;;;;;;;;;;5057835;27;90093;-67
2022/06/05 00:39:50;;;;;;;9.18;5.00;;;;;;;;;;5057473;27;88835;-67
2022/06/05 00:42:17;;;;;;;8.65;5.00;;;;;;;;;;5047740;27;89532;-68
2022/06/05 00:44:46;;;;;;;9.18;5.38;;;;;;;;;;5056976;27;90049;-68
2022/06/05 00:47:17;;;;;;;10.75;6.05;;;;;;;;;;5056372;27;87651;-69
2022/06/05 00:49:58;;;;;;;13.25;6.20;;;;;;;;;;5056867;27;88963;-68
2022/06/05 00:52:28;;;;;;;12.05;5.65;;;;;;;;;;5059893;27;89330;-67
2022/06/05 00:54:55;;;;;;;17.33;5.53;;;;;;;;;;5054092;27;90220;-67
2022/06/05 00:57:21;;;;;;;12.00;6.05;;;;;;;;;;5058148;27;88963;-68
2022/06/05 00:59:48;;;;;;;13.23;6.00;;;;;;;;;;5053976;27;88745;-67
2022/06/05 01:02:14;;;;;;;14.02;5.80;;;;;;;;;;5054375;27;89021;-67
2022/06/05 01:04:44;;;;;;;9.20;5.50;;;;;;;;;;5055677;27;88901;-68
2022/06/05 01:07:10;;;;;;;13.82;6.28;;;;;;;;;;5058508;27;87939;-67
2022/06/05 01:09:38;;;;;;;16.40;6.47;;;;;;;;;;5055787;27;88838;-67
2022/06/05 01:12:14;;;;;;;13.07;6.13;;;;;;;;;;5068407;27;87921;-67
2022/06/05 01:14:52;;;;;;;14.85;6.07;;;;;;;;;;5058476;27;88023;-67
2022/06/05 01:17:29;;;;;;;11.82;6.55;;;;;;;;;;5055512;27;88683;-67
2022/06/05 01:20:18;;;;;;;12.98;6.68;;;;;;;;;;5055409;27;88887;-67
2022/06/05 01:22:48;;;;;;;13.25;5.97;;;;;;;;;;5059177;27;89539;-67
2022/06/05 01:25:32;;;;;;;10.63;6.40;;;;;;;;;;5056008;27;89662;-68
2022/06/05 01:28:00;;;;;;;12.27;6.03;;;;;;;;;;5055660;27;88935;-68
2022/06/05 01:30:29;;;;;;;12.95;7.15;;;;;;;;;;5056755;27;89256;-68
2022/06/05 01:33:01;;;;;;;8.63;5.88;;;;;;;;;;5076788;27;90157;-68
2022/06/05 01:35:37;;;;;;;14.80;6.75;;;;;;;;;;5068683;27;88554;-67
2022/06/05 01:38:07;;;;;;;14.82;6.30;;;;;;;;;;5058715;27;88966;-67
2022/06/05 01:40:45;;;;;;;13.73;7.25;;;;;;;;;;5063111;27;88031;-68
2022/06/05 01:43:13;;;;;;;9.00;6.43;;;;;;;;;;5043316;27;88801;-68
2022/06/05 01:45:42;;;;;;;13.30;7.20;;;;;;;;;;5057594;27;89834;-67
2022/06/05 01:48:11;;;;;;;18.60;7.10;;;;;;;;;;5056731;27;88029;-67
2022/06/05 01:50:41;;;;;;;11.50;6.78;;;;;;;;;;5057384;27;88836;-68
2022/06/05 01:53:18;;;;;;;10.15;6.95;;;;;;;;;;5064252;27;90309;-68
2022/06/05 01:56:02;;;;;;;9.48;6.50;;;;;;;;;;5054455;27;88061;-67
2022/06/05 01:58:44;;;;;;;13.35;7.57;;;;;;;;;;5056559;27;88323;-68
2022/06/05 02:01:11;;;;;;;11.15;7.05;;;;;;;;;;5061582;27;88952;-68
2022/06/05 02:03:40;;;;;;;12.45;6.95;;;;;;;;;;5041077;27;88877;-67
2022/06/05 02:06:09;;;;;;;12.25;6.75;;;;;;;;;;5059833;27;89176;-67
2022/06/05 02:08:47;;;;;;;15.02;7.43;;;;;;;;;;5056841;27;88005;-69
2022/06/05 02:11:24;;;;;;;18.80;7.72;;;;;;;;;;5065787;27;89093;-68
2022/06/05 02:13:53;;;;;;;12.27;7.18;;;;;;;;;;5077988;27;89919;-67
2022/06/05 02:16:20;;;;;;;15.60;7.57;;;;;;;;;;5055476;27;89038;-67
2022/06/05 02:18:46;;;;;;;19.70;8.13;;;;;;;;;;5056359;27;88977;-68
2022/06/05 02:21:13;;;;;;;17.70;7.80;;;;;;;;;;5077332;27;88797;-67
2022/06/05 02:23:40;;;;;;;15.98;7.07;;;;;;;;;;5078247;27;88798;-68
2022/06/05 02:26:08;;;;;;;16.83;7.93;;;;;;;;;;5078189;27;88942;-68
2022/06/05 02:28:35;;;;;;;13.23;7.68;;;;;;;;;;5101183;27;88722;-68
2022/06/05 02:31:17;;;;;;;15.20;8.77;;;;;;;;;;5090390;27;87975;-67
2022/06/05 02:34:01;;;;;;;13.68;7.55;;;;;;;;;;5071375;27;89018;-67
2022/06/05 02:36:37;;;;;;;14.30;7.68;;;;;;;;;;5080222;27;88850;-67
2022/06/05 02:39:03;;;;;;;13.30;7.60;;;;;;;;;;5090676;27;89599;-68
2022/06/05 02:41:33;;;;;;;14.38;8.15;;;;;;;;;;5101257;27;88788;-68
2022/06/05 02:44:29;;;;;;;12.38;7.85;;;;;;;;;;5087750;27;88588;-68
2022/06/05 02:46:58;;;;;;;16.70;7.68;;;;;;;;;;5077374;27;88889;-67
2022/06/05 02:49:30;;;;;;;14.20;7.65;;;;;;;;;;5082261;27;88420;-67
2022/06/05 02:51:58;;;;;;;14.57;7.97;;;;;;;;;;5101624;27;89620;-68
2022/06/05 02:54:26;;;;;;;13.32;7.68;;;;;;;;;;5092778;27;88153;-67
2022/06/05 02:56:54;;;;;;;15.60;8.07;;;;;;;;;;5090614;27;89901;-67
2022/06/05 02:59:20;;;;;;;13.90;8.15;;;;;;;;;;5083409;27;88700;-67
2022/06/05 03:04:31;;;;;;;13.52;7.80;;;;;;;;;;5080042;27;88755;-68
2022/06/05 03:06:58;;;;;;;18.30;8.15;;;;;;;;;;5082464;27;88873;-67
2022/06/05 03:09:24;;;;;;;13.10;8.05;;;;;;;;;;5075351;27;88086;-67
2022/06/05 03:11:51;;;;;;;11.20;7.47;;;;;;;;;;5080036;27;89827;-67
2022/06/05 03:14:18;;;;;;;20.23;8.70;;;;;;;;;;5075712;27;88547;-68
2022/06/05 03:16:44;;;;;;;13.43;8.40;;;;;;;;;;5079741;27;88209;-68
2022/06/05 03:19:11;;;;;;;13.95;8.45;;;;;;;;;;5083142;27;88602;-68
2022/06/05 03:21:37;;;;;;;10.35;8.00;;;;;;;;;;5084851;27;89475;-67
2022/06/05 03:24:04;;;;;;;18.05;8.73;;;;;;;;;;5080934;27;87932;-67
2022/06/05 03:26:31;;;;;;;15.30;7.95;;;;;;;;;;5075466;27;88866;-68
2022/06/05 03:28:57;;;;;;;29.27;9.63;;;;;;;;;;5082366;27;88820;-68
2022/06/05 03:31:24;;;;;;;10.98;8.05;;;;;;;;;;5096190;27;88857;-68
2022/06/05 03:33:50;;;;;;;14.43;8.80;;;;;;;;;;5079352;27;89970;-67
2022/06/05 03:36:17;;;;;;;17.08;8.93;;;;;;;;;;5078539;27;88161;-68
2022/06/05 03:38:43;;;;;;;18.85;9.50;;;;;;;;;;5083861;27;88149;-67
2022/06/05 03:41:10;;;;;;;15.82;8.73;;;;;;;;;;5095027;27;90173;-68
2022/06/05 03:43:37;;;;;;;16.48;9.00;;;;;;;;;;5060185;27;87857;-67
2022/06/05 03:46:05;;;;;;;18.27;9.93;;;;;;;;;;5079650;27;89061;-68
2022/06/05 03:48:31;;;;;;;13.52;9.02;;;;;;;;;;5082619;27;88800;-68
2022/06/05 03:51:13;;;;;;;15.00;9.40;;;;;;;;;;5099640;27;88737;-68
2022/06/05 03:53:40;;;;;;;16.60;8.73;;;;;;;;;;5100221;27;88755;-67
2022/06/05 03:56:08;;;;;;;18.15;8.88;;;;;;;;;;5076509;27;88068;-68
2022/06/05 03:58:35;;;;;;;13.60;8.63;;;;;;;;;;5077073;27;88916;-67
2022/06/05 04:01:01;;;;;;;14.18;8.85;;;;;;;;;;5077087;27;89592;-68
2022/06/05 04:03:28;;;;;;;17.67;8.98;;;;;;;;;;5082947;27;88091;-67
2022/06/05 04:05:55;;;;;;;18.77;8.80;;;;;;;;;;5075325;27;88724;-68
2022/06/05 04:08:21;;;;;;;15.23;8.82;;;;;;;;;;5076858;27;87989;-67
2022/06/05 04:10:47;;;;;;;20.02;9.18;;;;;;;;;;5078498;27;88082;-68
2022/06/05 04:13:14;;;;;;;17.48;8.73;;;;;;;;;;5063819;27;88669;-68
2022/06/05 04:15:40;;;;;;;13.70;8.88;;;;;;;;;;5076951;27;90492;-68
2022/06/05 04:18:08;;;;;;;14.93;9.23;;;;;;;;;;5075503;27;90703;-68
2022/06/05 04:20:37;;;;;;;15.57;9.52;;;;;;;;;;5091913;27;88587;-67
2022/06/05 04:23:04;;;;;;;17.42;8.60;;;;;;;;;;5094137;27;88358;-68
2022/06/05 04:25:30;;;;;;;15.38;9.02;;;;;;;;;;5077505;27;88475;-67
2022/06/05 04:27:57;;;;;;;15.43;9.55;;;;;;;;;;5078750;27;88695;-67
2022/06/05 04:30:25;;;;;;;13.90;9.02;;;;;;;;;;5089921;27;88746;-68
2022/06/05 04:32:51;;;;;;;23.15;10.05;;;;;;;;;;5096233;27;88454;-68
2022/06/05 04:35:18;;;;;;;15.32;10.15;;;;;;;;;;5075874;27;89093;-67
2022/06/05 04:37:44;;;;;;;18.23;9.48;;;;;;;;;;5077088;27;89427;-67
2022/06/05 04:40:10;;;;;;;17.45;10.43;;;;;;;;;;5094253;27;89532;-67
2022/06/05 04:42:37;;;;;;;22.40;10.38;;;;;;;;;;5077323;27;90660;-67
2022/06/05 04:45:03;;;;;;;18.10;9.88;;;;;;;;;;5083471;27;93850;-68
2022/06/05 04:47:30;;;;;;;19.25;10.48;;;;;;;;;;5088031;27;89382;-68
2022/06/05 04:49:56;;;;;;;17.90;10.10;;;;;;;;;;5065546;27;89267;-67
2022/06/05 04:52:22;;;;;;;16.15;10.85;;;;;;;;;;5097626;27;90214;-67
2022/06/05 04:54:49;;;;;;;18.67;10.77;;;;;;;;;;5089331;27;89889;-67
2022/06/05 04:57:15;;;;;;;15.25;10.15;;;;;;;;;;5083132;27;89324;-68
2022/06/05 04:59:41;;;;;;;18.83;10.75;;;;;;;;;;5080822;27;88933;-67
2022/06/05 05:02:07;;;;;;;20.63;10.48;;;;;;;;;;5088606;27;89853;-68
2022/06/05 05:04:34;;;;;;;15.88;10.07;;;;;;;;;;5076031;27;89542;-68
2022/06/05 05:07:00;;;;;;;23.90;10.43;;;;;;;;;;5074812;27;88912;-69
2022/06/05 05:09:26;;;;;;;13.80;9.75;;;;;;;;;;5073216;27;89900;-68
2022/06/05 05:11:53;;;;;;;17.15;10.65;;;;;;;;;;5078422;27;88936;-67
2022/06/05 05:14:19;;;;;;;15.98;10.18;;;;;;;;;;5078546;27;89097;-68
2022/06/05 05:16:45;;;;;;;18.35;11.43;;;;;;;;;;5081913;27;89481;-68
2022/06/05 05:19:12;;;;;;;18.48;10.52;;;;;;;;;;5058239;27;90476;-68
2022/06/05 05:21:38;;;;;;;17.35;10.70;;;;;;;;;;5062999;27;89870;-68
2022/06/05 05:24:04;;;;;;;17.15;11.48;;;;;;;;;;5055845;27;89345;-67
2022/06/05 05:26:32;;;;;;;27.15;12.38;;;;;;;;;;5056262;27;89828;-67
2022/06/05 05:28:59;;;;;;;28.35;11.40;;;;;;;;;;5055160;27;90114;-67
2022/06/05 05:31:27;;;;;;;20.45;10.52;;;;;;;;;;5068687;27;89669;-68
2022/06/05 05:33:53;;;;;;;19.95;11.30;;;;;;;;;;5075340;27;89213;-68
2022/06/05 05:36:21;;;;;;;18.05;11.25;;;;;;;;;;5064992;27;91073;-68
2022/06/05 05:44:18;;;;;;;19.00;11.77;;;;;;;;;;5059317;27;89220;-68
2022/06/05 05:46:45;;;;;;;18.30;10.23;;;;;;;;;;5060869;27;89070;-68
2022/06/05 05:49:11;;;;;;;19.63;11.45;;;;;;;;;;5060130;27;88913;-67
2022/06/05 05:51:38;;;;;;;18.25;10.50;;;;;;;;;;5057613;27;89675;-68
2022/06/05 05:54:05;;;;;;;16.95;11.20;;;;;;;;;;5057314;27;89742;-68
2022/06/05 05:56:31;;;;;;;19.10;10.77;;;;;;;;;;5054912;27;89862;-67
2022/06/05 05:58:58;;;;;;;15.15;10.60;;;;;;;;;;5056759;27;90400;-67
2022/06/05 06:01:24;;;;;;;20.55;11.77;;;;;;;;;;5066072;27;89282;-68
2022/06/05 06:03:51;;;;;;;16.27;10.77;;;;;;;;;;5057178;27;89587;-67
2022/06/05 06:06:22;;;;;;;17.83;11.02;;;;;;;;;;5066356;27;89399;-67
2022/06/05 06:08:48;;;;;;;21.67;11.27;;;;;;;;;;5063086;27;89763;-68
2022/06/05 06:11:14;;;;;;;20.42;11.25;;;;;;;;;;5068725;27;89344;-66
2022/06/05 06:13:40;;;;;;;16.92;10.80;;;;;;;;;;5074840;27;89349;-68
2022/06/05 06:16:07;;;;;;;17.75;10.63;;;;;;;;;;5069191;27;91125;-67
2022/06/05 06:18:34;;;;;;;21.52;11.20;;;;;;;;;;5059075;27;89411;-67
2022/06/05 06:21:00;;;;;;;15.90;11.07;;;;;;;;;;5073079;27;89108;-68
2022/06/05 06:23:27;;;;;;;21.38;11.40;;;;;;;;;;5075845;27;89765;-65
2022/06/05 06:25:53;;;;;;;21.60;12.25;;;;;;;;;;5079950;27;88858;-67
2022/06/05 06:28:19;;;;;;;18.02;10.65;;;;;;;;;;5082010;27;90145;-69
2022/06/05 06:30:45;;;;;;;19.75;10.60;;;;;;;;;;5077280;27;89317;-68
2022/06/05 06:33:12;;;;;;;26.15;11.90;;;;;;;;;;5080412;27;90201;-69
2022/06/05 06:35:41;;;;;;;19.27;12.13;;;;;;;;;;5078514;27;89928;-68
2022/06/05 06:38:07;;;;;;;16.35;11.32;;;;;;;;;;5069967;27;89785;-69
2022/06/05 06:40:35;;;;;;;16.63;11.35;;;;;;;;;;5079321;27;88971;-68
2022/06/05 06:43:02;;;;;;;17.42;10.90;;;;;;;;;;5069359;27;89684;-68
2022/06/05 06:45:28;;;;;;;24.23;10.93;;;;;;;;;;5061588;27;89289;-69
2022/06/05 06:47:55;;;;;;;13.52;10.68;;;;;;;;;;5078205;27;90950;-67
2022/06/05 06:50:21;;;;;;;18.15;11.23;;;;;;;;;;5078636;27;89180;-68
2022/06/05 06:52:47;;;;;;;23.23;11.48;;;;;;;;;;5078807;27;88964;-69
2022/06/05 06:55:16;;;;;;;15.88;10.65;;;;;;;;;;5086478;27;89962;-69
2022/06/05 06:57:43;;;;;;;17.02;10.27;;;;;;;;;;5089355;27;89735;-68
2022/06/05 07:00:13;;;;;;;22.45;11.00;;;;;;;;;;5067157;27;88921;-68
2022/06/05 07:02:39;;;;;;;19.70;10.55;;;;;;;;;;5059020;27;90042;-67
2022/06/05 07:05:05;;;;;;;18.85;10.82;;;;;;;;;;5087933;27;90325;-67
2022/06/05 07:07:32;;;;;;;16.10;11.27;;;;;;;;;;5080960;27;89907;-67
2022/06/05 07:09:58;;;;;;;16.83;11.10;;;;;;;;;;5081493;27;89344;-68
2022/06/05 07:12:24;;;;;;;18.70;10.90;;;;;;;;;;5078736;27;89864;-68
2022/06/05 07:14:51;;;;;;;19.80;11.30;;;;;;;;;;5078565;27;90110;-68
2022/06/05 07:17:17;;;;;;;16.95;11.02;;;;;;;;;;5075257;27;90548;-67
2022/06/05 07:19:43;;;;;;;16.85;10.30;;;;;;;;;;5066900;27;89155;-68
2022/06/05 07:22:09;;;;;;;20.17;11.05;;;;;;;;;;5057746;27;89904;-67
2022/06/05 07:24:36;;;;;;;16.98;10.80;;;;;;;;;;5057856;27;90529;-67
2022/06/05 07:27:02;;;;;;;18.88;11.07;;;;;;;;;;5054843;27;89337;-67
2022/06/05 07:29:28;;;;;;;16.45;10.50;;;;;;;;;;5051582;27;89392;-67
2022/06/05 07:31:55;;;;;;;13.95;10.05;;;;;;;;;;5058748;27;90729;-67
2022/06/05 07:34:21;;;;;;;27.25;10.63;;;;;;;;;;5057021;27;90032;-68
2022/06/05 07:36:47;;;;;;;19.10;10.23;;;;;;;;;;5058299;27;90648;-68
2022/06/05 07:39:14;;;;;;;20.00;10.98;;;;;;;;;;5055489;27;90194;-68
2022/06/05 07:41:40;;;;;;;13.65;10.48;;;;;;;;;;5071770;27;89706;-68
2022/06/05 07:44:07;;;;;;;13.32;10.05;;;;;;;;;;5071314;27;89228;-70
2022/06/05 07:46:35;;;;;;;16.20;10.48;;;;;;;;;;5058276;27;89335;-69
2022/06/05 07:49:01;;;;;;;18.67;10.23;;;;;;;;;;5058212;27;90099;-69
2022/06/05 07:54:27;;;;;;;14.20;10.25;;;;;;;;;;5050231;27;90119;-69
2022/06/05 07:56:55;;;;;;;17.98;10.43;;;;;;;;;;5037472;27;89654;-69
2022/06/05 07:59:21;;;;;;;17.17;9.93;;;;;;;;;;5056837;27;88886;-68
2022/06/05 08:01:54;;;;;;;15.95;10.13;;;;;;;;;;5042136;27;90054;-68
2022/06/05 08:04:20;;;;;;;16.05;10.10;;;;;;;;;;5056150;27;89608;-68
2022/06/05 08:06:51;;;;;;;16.83;10.23;;;;;;;;;;5055488;27;90115;-68
2022/06/05 08:09:17;;;;;;;13.23;9.57;;;;;;;;;;5054323;27;89862;-68
2022/06/05 08:11:45;;;;;;;15.57;9.95;;;;;;;;;;5059755;27;88879;-68
2022/06/05 08:14:12;;;;;;;17.17;9.80;;;;;;;;;;5057942;27;87916;-68
2022/06/05 08:16:43;;;;;;;13.80;9.60;;;;;;;;;;5059458;27;88673;-68
2022/06/05 08:19:11;;;;;;;20.92;9.25;;;;;;;;;;5058091;27;88960;-68
2022/06/05 08:21:38;;;;;;;22.73;9.93;;;;;;;;;;5059170;27;89049;-69
2022/06/05 08:24:05;;;;;;;12.27;9.10;;;;;;;;;;5057684;27;89536;-68
2022/06/05 08:26:31;;;;;;;10.55;8.60;;;;;;;;;;5057322;27;89026;-68
2022/06/05 08:28:57;;;;;;;12.38;9.27;;;;;;;;;;5063900;27;89523;-68
2022/06/05 08:31:24;;;;;;;15.18;9.30;;;;;;;;;;5057683;27;88831;-68
2022/06/05 08:33:50;;;;;;;14.27;8.90;;;;;;;;;;5061404;27;88999;-69
2022/06/05 08:36:16;;;;;;;10.68;8.90;;;;;;;;;;5058630;27;88608;-68
2022/06/05 08:41:27;;;;;;;16.95;8.65;;;;;;;;;;5054682;27;88068;-68
2022/06/05 08:44:12;;;;;;;9.80;8.70;;;;;;;;;;5049960;27;88819;-68
2022/06/05 08:46:41;;;;;;;13.60;9.35;;;;;;;;;;5055051;27;89568;-68
2022/06/05 08:49:12;;;;;;;14.77;8.48;;;;;;;;;;5040149;27;88226;-68
2022/06/05 08:51:38;;;;;;;;;;;;;;;;;;5065926;27;89713;-68
2022/06/05 08:54:06;;;;;;;11.50;8.77;;;;;;;;;;5049710;27;119266;-68
2022/06/05 08:56:35;;;;;;;17.58;8.63;;;;;;;;;;5057263;27;88594;-68
2022/06/05 08:59:06;;;;;;;13.60;8.73;;;;;;;;;;5056041;27;88753;-67
2022/06/05 09:01:33;;;;;;;13.27;8.05;;;;;;;;;;5058267;27;88010;-68
2022/06/05 09:03:59;;;;;;;11.48;8.15;;;;;;;;;;5038785;27;89896;-68
2022/06/05 09:06:25;;;;;;;10.05;8.38;;;;;;;;;;5056615;27;88132;-67
2022/06/05 09:08:54;;;;;;;9.95;8.02;;;;;;;;;;5050055;27;87953;-67
2022/06/05 09:11:24;;;;;;;13.88;9.10;;;;;;;;;;5055883;27;89432;-68
2022/06/05 09:13:57;;;;;;;11.57;8.38;;;;;;;;;;5056777;27;88110;-67
2022/06/05 09:16:25;;;;;;;10.07;8.50;;;;;;;;;;5057406;27;88780;-67
2022/06/05 09:18:52;;;;;;;12.52;9.05;;;;;;;;;;5059267;27;87980;-67
2022/06/05 09:21:23;;;;;;;12.13;8.52;;;;;;;;;;5061700;27;88799;-68
2022/06/05 09:23:49;;;;;;;10.13;8.40;;;;;;;;;;5056669;27;88924;-67
2022/06/05 09:26:22;;;;;;;12.10;8.50;;;;;;;;;;5057889;27;88885;-66
2022/06/05 09:28:51;;;;;;;17.48;9.10;;;;;;;;;;5057063;27;87681;-68
2022/06/05 09:31:30;;;;;;;10.38;9.00;;;;;;;;;;5036687;27;88690;-68
2022/06/05 09:33:57;;;;;;;13.20;8.38;;;;;;;;;;5045197;27;87967;-68
2022/06/05 09:36:26;;;;;;;13.90;9.10;;;;;;;;;;5055594;27;90737;-68
2022/06/05 09:38:55;;;;;;;15.82;8.48;;;;;;;;;;5064158;27;89320;-68
2022/06/05 09:41:27;;;;;;;12.27;7.47;;;;;;;;;;5060616;27;87977;-67
2022/06/05 09:43:53;;;;;;;10.15;8.35;;;;;;;;;;5042880;27;88589;-68
2022/06/05 09:46:29;;;;;;;13.27;8.77;;;;;;;;;;5042029;27;89169;-68
2022/06/05 09:48:55;;;;;;;7.88;6.78;;;;;;;;;;5061394;27;88281;-68
2022/06/05 09:51:21;;;;;;;14.65;8.02;;;;;;;;;;5068227;27;89566;-68
2022/06/05 09:54:06;;;;;;;12.45;7.15;;;;;;;;;;5070560;27;87766;-68
2022/06/05 09:59:40;;;;;;;10.90;6.82;;;;;;;;;;4958517;28;88602;-76
2022/06/05 10:02:07;;;;;;;11.10;6.47;;;;;;;;;;4961359;28;89825;-76
2022/06/05 10:04:34;;;;;;;8.40;6.60;;;;;;;;;;4957233;28;89061;-74
2022/06/05 10:07:28;;;;;;;10.35;6.60;;;;;;;;;;4962144;28;89071;-73
2022/06/05 10:09:55;;;;;;;6.40;5.78;;;;;;;;;;4959084;28;88118;-75
2022/06/05 10:12:27;;;;;;;9.27;5.80;;;;;;;;;;4960308;28;88771;-76
2022/06/05 10:14:56;;;;;;;8.95;5.95;;;;;;;;;;4957976;28;88460;-76
2022/06/05 10:17:41;;;;;;;12.68;5.60;;;;;;;;;;4955174;28;88114;-75
2022/06/05 10:20:13;;;;;;;12.43;6.40;;;;;;;;;;4944748;28;89672;-76
2022/06/05 10:22:39;;;;;;;7.05;6.07;;;;;;;;;;4977581;28;88829;-73
2022/06/05 10:25:24;;;;;;;12.57;5.78;;;;;;;;;;4979082;28;88196;-75
2022/06/05 10:27:52;;;;;;;5.82;5.30;;;;;;;;;;4987790;28;89653;-76
2022/06/05 10:30:20;;;;;;;10.45;6.05;;;;;;;;;;4977757;28;88576;-75
2022/06/05 10:32:57;;;;;;;8.75;5.97;;;;;;;;;;4985564;28;90013;-77
2022/06/05 10:35:44;;;;;;;8.73;5.90;;;;;;;;;;5002926;27;89589;-75
2022/06/05 10:38:27;;;;;;;7.75;5.82;;;;;;;;;;5058169;27;88725;-75
2022/06/05 10:40:55;;;;;;;10.95;4.75;;;;;;;;;;5069090;27;88690;-75
2022/06/05 10:43:24;;;;;;;11.98;5.97;;;;;;;;;;5060712;27;89948;-74
2022/06/05 10:45:58;;;;;;;9.07;6.18;;;;;;;;;;5060727;27;87848;-74
2022/06/05 10:48:33;;;;;;;7.50;5.68;;;;;;;;;;5061624;27;88172;-74
2022/06/05 10:51:11;;;;;;;11.45;6.70;;;;;;;;;;5050336;27;88075;-75
2022/06/05 10:53:47;;;;;;;7.28;6.15;;;;;;;;;;5058185;27;88717;-75
2022/06/05 10:56:29;;;;;;;11.70;7.10;;;;;;;;;;5057917;27;90078;-76
2022/06/05 10:59:14;;;;;;;15.07;7.35;;;;;;;;;;5062267;27;88036;-76
2022/06/05 11:01:48;;;;;;;10.88;7.45;;;;;;;;;;5068296;27;88331;-75
2022/06/05 11:04:18;;;;;;;11.90;7.03;;;;;;;;;;5060315;27;88866;-76
2022/06/05 11:06:44;;;;;;;;;;;;;;;;;;5059615;27;88032;-76
2022/06/05 11:09:29;;;;;;;10.23;7.32;;;;;;;;;;5062753;27;119123;-74
2022/06/05 11:14:49;;;;;;;8.90;8.00;;;;;;;;;;5059672;27;88010;-75
2022/06/05 11:17:22;;;;;;;8.68;7.47;;;;;;;;;;5058066;27;88003;-74
2022/06/05 11:20:07;;;;;;;9.38;7.93;;;;;;;;;;5062142;27;88844;-76
2022/06/05 11:22:34;;;;;;;14.13;7.72;;;;;;;;;;5066376;27;90381;-75
2022/06/05 11:25:12;;;;;;;11.48;8.25;;;;;;;;;;5051579;27;89087;-75
2022/06/05 11:27:48;;;;;;;8.45;7.38;;;;;;;;;;5058702;27;89538;-75
2022/06/05 11:30:19;;;;;;;12.70;8.23;;;;;;;;;;5065522;27;88575;-76
2022/06/05 11:32:52;;;;;;;12.70;7.53;;;;;;;;;;5059598;27;88650;-76
2022/06/05 11:35:43;;;;;;;8.75;7.80;;;;;;;;;;5041695;27;88463;-74
2022/06/05 11:38:28;;;;;;;9.95;7.40;;;;;;;;;;5056229;27;88152;-77
2022/06/05 11:41:16;;;;;;;7.97;7.18;;;;;;;;;;5070881;27;88095;-77
2022/06/05 11:43:43;;;;;;;13.77;7.93;;;;;;;;;;5054424;27;88669;-78
2022/06/05 11:46:32;;;;;;;13.52;7.40;;;;;;;;;;5056989;27;89868;-77
2022/06/05 11:49:03;;;;;;;9.98;6.43;;;;;;;;;;5058743;27;88198;-76
2022/06/05 11:51:32;;;;;;;11.18;6.78;;;;;;;;;;5057552;27;89509;-77
2022/06/05 11:54:07;;;;;;;10.32;6.68;;;;;;;;;;5053086;27;89166;-76
2022/06/05 11:56:52;;;;;;;8.52;6.72;;;;;;;;;;5061284;27;87896;-76
2022/06/05 11:59:29;;;;;;;7.60;6.25;;;;;;;;;;5064573;27;89909;-76
2022/06/05 12:02:22;;;;;;;11.15;7.60;;;;;;;;;;5057013;27;88759;-76
2022/06/05 12:04:57;;;;;;;13.55;8.55;;;;;;;;;;5056189;27;88794;-76
2022/06/05 12:07:24;;;;;;;7.80;7.10;;;;;;;;;;5058960;27;88781;-76
2022/06/05 12:09:55;;;;;;;18.55;8.40;;;;;;;;;;5059111;27;88133;-76
2022/06/05 12:12:27;;;;;;;9.13;6.78;;;;;;;;;;5067606;27;88705;-76
2022/06/05 12:15:02;;;;;;;9.50;8.50;;;;;;;;;;5079615;27;89644;-76
2022/06/05 12:17:34;;;;;;;9.73;8.55;;;;;;;;;;5057814;27;87967;-76
2022/06/05 12:20:01;;;;;;;9.77;7.70;;;;;;;;;;5058523;27;90261;-77
2022/06/05 12:22:42;;;;;;;15.23;9.45;;;;;;;;;;5058937;27;87987;-76
2022/06/05 12:25:17;;;;;;;9.20;8.32;;;;;;;;;;5057610;27;89174;-76
2022/06/05 12:27:53;;;;;;;9.52;6.82;;;;;;;;;;5058558;27;88767;-77
2022/06/05 12:30:21;;;;;;;13.02;9.55;;;;;;;;;;5057676;27;87594;-76
2022/06/05 12:32:57;;;;;;;9.52;8.63;;;;;;;;;;5030126;27;88047;-76
2022/06/05 12:35:26;;;;;;;16.67;8.88;;;;;;;;;;5058777;27;88791;-77
2022/06/05 12:38:15;;;;;;;10.18;9.10;;;;;;;;;;5039695;27;88744;-76
2022/06/05 12:40:46;;;;;;;8.13;7.37;;;;;;;;;;4982926;28;89637;-77
2022/06/05 12:43:21;;;;;;;14.60;9.45;;;;;;;;;;4978857;28;90060;-76
2022/06/05 12:45:51;;;;;;;12.93;9.40;;;;;;;;;;4969882;28;88024;-76
2022/06/05 12:48:23;;;;;;;18.70;10.20;;;;;;;;;;4977714;28;89566;-76
2022/06/05 12:51:01;;;;;;;12.65;9.07;;;;;;;;;;4983953;28;89060;-76
2022/06/05 12:53:46;;;;;;;10.35;9.00;;;;;;;;;;4987006;28;90066;-76
2022/06/05 12:56:32;;;;;;;11.20;10.07;;;;;;;;;;4976204;28;88060;-76
2022/06/05 12:59:12;;;;;;;14.95;9.25;;;;;;;;;;4970415;28;90068;-75
2022/06/05 13:01:42;;;;;;;10.02;9.13;;;;;;;;;;4974602;28;89756;-77
2022/06/05 13:04:20;;;;;;;13.65;9.95;;;;;;;;;;4975726;28;91164;-77
2022/06/05 13:07:00;;;;;;;12.30;10.20;;;;;;;;;;4985401;28;88889;-74
2022/06/05 13:09:28;;;;;;;13.60;11.57;;;;;;;;;;4989006;28;89820;-74
2022/06/05 13:12:13;;;;;;;17.02;12.50;;;;;;;;;;4985335;28;91167;-73
2022/06/05 13:14:58;;;;;;;12.75;11.25;;;;;;;;;;4974437;28;90062;-76
2022/06/05 13:17:33;;;;;;;12.88;11.13;;;;;;;;;;5013283;27;89112;-76
2022/06/05 13:20:02;;;;;;;16.20;12.85;;;;;;;;;;5056460;27;90355;-76
2022/06/05 13:22:31;;;;;;;13.73;11.95;;;;;;;;;;5056924;27;89206;-76
2022/06/05 13:25:01;;;;;;;16.50;13.25;;;;;;;;;;5057821;27;89069;-76
2022/06/05 13:27:39;;;;;;;15.43;11.95;;;;;;;;;;5039993;27;90786;-76
2022/06/05 13:30:11;;;;;;;15.70;12.95;;;;;;;;;;5053112;27;89548;-77
2022/06/05 13:32:56;;;;;;;20.00;13.73;;;;;;;;;;5067489;27;89728;-76
2022/06/05 13:35:36;;;;;;;17.20;15.02;;;;;;;;;;5055757;27;89471;-75
2022/06/05 13:38:09;;;;;;;21.17;14.87;;;;;;;;;;5062429;27;89018;-76
2022/06/05 13:40:55;;;;;;;15.60;13.35;;;;;;;;;;5056343;27;90215;-76
2022/06/05 13:43:24;;;;;;;14.45;12.38;;;;;;;;;;5072577;27;90993;-76
2022/06/05 13:46:09;;;;;;;27.80;12.40;;;;;;;;;;5056206;27;89186;-76
2022/06/05 13:48:43;;;;;;;17.75;14.00;;;;;;;;;;5055929;27;90801;-76
2022/06/05 13:51:29;;;;;;;17.10;14.27;;;;;;;;;;5040047;27;89871;-74
2022/06/05 13:54:04;;;;;;;13.13;11.82;;;;;;;;;;5053862;27;89866;-75
2022/06/05 13:56:37;;;;;;;14.25;12.73;;;;;;;;;;5056245;27;89369;-75
2022/06/05 13:59:10;;;;;;;15.27;13.25;;;;;;;;;;5055351;27;89300;-76
2022/06/05 14:01:47;;;;;;;18.30;16.42;;;;;;;;;;5056437;27;90040;-76
2022/06/05 14:04:18;;;;;;;35.22;16.48;;;;;;;;;;5054804;27;89558;-76
2022/06/05 14:06:56;;;;;;;21.27;16.02;;;;;;;;;;5055948;27;89746;-76
2022/06/05 14:09:28;;;;;;;21.50;17.90;;;;;;;;;;5056702;27;91216;-75
2022/06/05 14:11:56;;;;;;;25.70;17.98;;;;;;;;;;5056392;27;89474;-75
2022/06/05 14:14:48;;;;;;;26.40;16.90;;;;;;;;;;5057311;27;89020;-76
2022/06/05 14:17:27;;;;;;;20.05;17.65;;;;;;;;;;5049617;27;89743;-76
2022/06/05 14:19:56;;;;;;;21.83;17.97;;;;;;;;;;5080028;27;89219;-76
2022/06/05 14:22:34;;;;;;;21.15;17.20;;;;;;;;;;5083498;27;90121;-76
2022/06/05 14:25:01;;;;;;;25.30;15.55;;;;;;;;;;5093489;27;89404;-76
2022/06/05 14:27:32;;;;;;;19.77;16.77;;;;;;;;;;5062794;27;89006;-75
2022/06/05 14:30:00;;;;;;;24.15;17.33;;;;;;;;;;5079647;27;89863;-76
2022/06/05 14:32:28;;;;;;;20.15;17.42;;;;;;;;;;5085335;27;89309;-76
2022/06/05 14:35:14;;;;;;;24.95;17.73;;;;;;;;;;5083513;27;90226;-76
2022/06/05 14:37:45;;;;;;;21.27;17.85;;;;;;;;;;5081352;27;89172;-76
2022/06/05 14:40:14;;;;;;;24.45;18.02;;;;;;;;;;5079939;27;88817;-75
2022/06/05 14:42:42;;;;;;;22.15;17.33;;;;;;;;;;5081048;27;90852;-76
2022/06/05 14:45:19;;;;;;;22.13;18.10;;;;;;;;;;5060492;27;89821;-76
2022/06/05 14:47:53;;;;;;;21.33;18.75;;;;;;;;;;5078473;27;90063;-75
2022/06/05 14:50:23;;;;;;;28.80;20.13;;;;;;;;;;5079409;27;90034;-76
2022/06/05 14:52:49;;;;;;;22.53;19.07;;;;;;;;;;5078894;27;89436;-76
2022/06/05 14:58:21;;;;;;;24.63;20.13;;;;;;;;;;5078244;27;90002;-76
2022/06/05 15:00:57;;;;;;;21.05;18.77;;;;;;;;;;5064390;27;89640;-76
2022/06/05 15:03:42;;;;;;;23.75;18.50;;;;;;;;;;5095864;27;90059;-76
2022/06/05 15:06:10;;;;;;;25.05;19.60;;;;;;;;;;5091284;27;90475;-76
2022/06/05 15:08:49;;;;;;;20.92;18.65;;;;;;;;;;5077870;27;89198;-76
2022/06/05 15:11:18;;;;;;;21.70;18.77;;;;;;;;;;5079213;27;91282;-76
2022/06/05 15:13:44;;;;;;;22.42;19.85;;;;;;;;;;5078495;27;90389;-75